sensor_id;sensor_type;location;lat;lon;timestamp;pressure;altitude;pressure_sealevel;temperature
58102;BMP280;52034;51.926;6.320;2023-05-10T00:00:57;100738.47;;;15.08
58102;BMP280;52034;51.926;6.320;2023-05-10T00:01:57;100731.44;;;15.09
58102;BMP280;52034;51.926;6.320;2023-05-10T00:02:57;100734.97;;;15.09
58102;BMP280;52034;51.926;6.320;2023-05-10T00:03:58;100731.44;;;15.09
58102;BMP280;52034;51.926;6.320;2023-05-10T00:04:58;100741.28;;;15.08
58102;BMP280;52034;51.926;6.320;2023-05-10T00:05:58;100727.16;;;15.08
58102;BMP280;52034;51.926;6.320;2023-05-10T00:06:59;100737.75;;;15.07
58102;BMP280;52034;51.926;6.320;2023-05-10T00:07:59;100733.53;;;15.08
58102;BMP280;52034;51.926;6.320;2023-05-10T00:08:59;100737.09;;;15.09
58102;BMP280;52034;51.926;6.320;2023-05-10T00:10:00;100727.88;;;15.08
58102;BMP280;52034;51.926;6.320;2023-05-10T00:11:00;100727.88;;;15.08
58102;BMP280;52034;51.926;6.320;2023-05-10T00:12:00;100737.81;;;15.11
58102;BMP280;52034;51.926;6.320;2023-05-10T00:13:01;100731.47;;;15.11
58102;BMP280;52034;51.926;6.320;2023-05-10T00:14:01;100729.34;;;15.13
58102;BMP280;52034;51.926;6.320;2023-05-10T00:15:02;100730.03;;;15.12
58102;BMP280;52034;51.926;6.320;2023-05-10T00:16:03;100731.50;;;15.13
58102;BMP280;52034;51.926;6.320;2023-05-10T00:17:03;100721.53;;;15.12
58102;BMP280;52034;51.926;6.320;2023-05-10T00:18:03;100730.03;;;15.12
58102;BMP280;52034;51.926;6.320;2023-05-10T00:19:04;100727.22;;;15.10
58102;BMP280;52034;51.926;6.320;2023-05-10T00:20:04;100737.13;;;15.13
58102;BMP280;52034;51.926;6.320;2023-05-10T00:21:05;100726.50;;;15.11
58102;BMP280;52034;51.926;6.320;2023-05-10T00:22:05;100727.19;;;15.12
58102;BMP280;52034;51.926;6.320;2023-05-10T00:23:06;100728.59;;;15.09
58102;BMP280;52034;51.926;6.320;2023-05-10T00:24:06;100720.00;;;15.03
58102;BMP280;52034;51.926;6.320;2023-05-10T00:25:07;100721.47;;;15.06
58102;BMP280;52034;51.926;6.320;2023-05-10T00:26:08;100727.09;;;15.04
58102;BMP280;52034;51.926;6.320;2023-05-10T00:27:08;100727.09;;;15.04
58102;BMP280;52034;51.926;6.320;2023-05-10T00:28:08;100723.50;;;15.01
58102;BMP280;52034;51.926;6.320;2023-05-10T00:29:11;100727.72;;;15.00
58102;BMP280;52034;51.926;6.320;2023-05-10T00:30:11;100729.19;;;15.03
58102;BMP280;52034;51.926;6.320;2023-05-10T00:31:12;100728.50;;;15.03
58102;BMP280;52034;51.926;6.320;2023-05-10T00:32:12;100722.13;;;15.02
58102;BMP280;52034;51.926;6.320;2023-05-10T00:33:13;100729.19;;;15.03
58102;BMP280;52034;51.926;6.320;2023-05-10T00:34:14;100727.78;;;15.02
58102;BMP280;52034;51.926;6.320;2023-05-10T00:35:15;100722.78;;;15.01
58102;BMP280;52034;51.926;6.320;2023-05-10T00:36:16;100727.09;;;15.04
58102;BMP280;52034;51.926;6.320;2023-05-10T00:37:16;100721.47;;;15.06
58102;BMP280;52034;51.926;6.320;2023-05-10T00:38:16;100721.44;;;15.04
58102;BMP280;52034;51.926;6.320;2023-05-10T00:39:16;100722.88;;;15.05
58102;BMP280;52034;51.926;6.320;2023-05-10T00:40:18;100719.22;;;14.98
58102;BMP280;52034;51.926;6.320;2023-05-10T00:41:22;100726.97;;;14.96
58102;BMP280;52034;51.926;6.320;2023-05-10T00:42:23;100721.34;;;14.98
58102;BMP280;52034;51.926;6.320;2023-05-10T00:43:25;100728.38;;;14.97
58102;BMP280;52034;51.926;6.320;2023-05-10T00:44:25;100725.56;;;14.97
58102;BMP280;52034;51.926;6.320;2023-05-10T00:45:25;100716.28;;;14.93
58102;BMP280;52034;51.926;6.320;2023-05-10T00:46:27;100723.47;;;14.99
58102;BMP280;52034;51.926;6.320;2023-05-10T00:47:28;100729.13;;;14.98
58102;BMP280;52034;51.926;6.320;2023-05-10T00:48:30;100729.78;;;14.96
58102;BMP280;52034;51.926;6.320;2023-05-10T00:49:30;100722.69;;;14.95
58102;BMP280;52034;51.926;6.320;2023-05-10T00:50:32;100721.28;;;14.94
58102;BMP280;52034;51.926;6.320;2023-05-10T00:51:33;100721.88;;;14.90
58102;BMP280;52034;51.926;6.320;2023-05-10T00:52:34;100720.53;;;14.92
58102;BMP280;52034;51.926;6.320;2023-05-10T00:53:34;100724.78;;;14.93
58102;BMP280;52034;51.926;6.320;2023-05-10T00:54:36;100726.16;;;14.92
58102;BMP280;52034;51.926;6.320;2023-05-10T00:55:36;100725.44;;;14.91
58102;BMP280;52034;51.926;6.320;2023-05-10T00:56:37;100729.00;;;14.92
58102;BMP280;52034;51.926;6.320;2023-05-10T00:57:38;100731.03;;;14.89
58102;BMP280;52034;51.926;6.320;2023-05-10T00:58:42;100726.81;;;14.88
58102;BMP280;52034;51.926;6.320;2023-05-10T00:59:42;100733.88;;;14.87
58102;BMP280;52034;51.926;6.320;2023-05-10T01:00:43;100731.75;;;14.88
58102;BMP280;52034;51.926;6.320;2023-05-10T01:01:45;100723.97;;;14.86
58102;BMP280;52034;51.926;6.320;2023-05-10T01:02:46;100726.81;;;14.88
58102;BMP280;52034;51.926;6.320;2023-05-10T01:03:46;100724.63;;;14.85
58102;BMP280;52034;51.926;6.320;2023-05-10T01:04:47;100722.50;;;14.83
58102;BMP280;52034;51.926;6.320;2023-05-10T01:05:47;100728.16;;;14.83
58102;BMP280;52034;51.926;6.320;2023-05-10T01:06:48;100729.56;;;14.84
58102;BMP280;52034;51.926;6.320;2023-05-10T01:07:48;100723.19;;;14.82
58102;BMP280;52034;51.926;6.320;2023-05-10T01:08:48;100716.13;;;14.83
58102;BMP280;52034;51.926;6.320;2023-05-10T01:09:49;100721.84;;;14.87
58102;BMP280;52034;51.926;6.320;2023-05-10T01:10:49;100720.44;;;14.88
58102;BMP280;52034;51.926;6.320;2023-05-10T01:11:50;100721.84;;;14.87
58102;BMP280;52034;51.926;6.320;2023-05-10T01:12:50;100707.00;;;14.86
58102;BMP280;52034;51.926;6.320;2023-05-10T01:13:55;100720.41;;;14.86
58102;BMP280;52034;51.926;6.320;2023-05-10T01:14:57;100724.66;;;14.87
58102;BMP280;52034;51.926;6.320;2023-05-10T01:15:58;100719.72;;;14.89
58102;BMP280;52034;51.926;6.320;2023-05-10T01:16:59;100724.66;;;14.87
58102;BMP280;52034;51.926;6.320;2023-05-10T01:18:01;100725.38;;;14.87
58102;BMP280;52034;51.926;6.320;2023-05-10T01:19:04;100728.22;;;14.89
58102;BMP280;52034;51.926;6.320;2023-05-10T01:20:07;100722.56;;;14.89
58102;BMP280;52034;51.926;6.320;2023-05-10T01:21:42;100724.03;;;14.90
58102;BMP280;52034;51.926;6.320;2023-05-10T01:24:22;100724.06;;;14.92
58102;BMP280;52034;51.926;6.320;2023-05-10T01:27:23;100724.06;;;14.92
58102;BMP280;52034;51.926;6.320;2023-05-10T01:30:10;100719.78;;;14.91
58102;BMP280;52034;51.926;6.320;2023-05-10T01:33:01;100715.63;;;14.94
58102;BMP280;52034;51.926;6.320;2023-05-10T01:34:16;100707.13;;;14.94
58102;BMP280;52034;51.926;6.320;2023-05-10T01:35:25;100723.47;;;14.98
58102;BMP280;52034;51.926;6.320;2023-05-10T01:36:31;100712.81;;;14.96
58102;BMP280;52034;51.926;6.320;2023-05-10T01:37:40;100718.44;;;14.94
58102;BMP280;52034;51.926;6.320;2023-05-10T01:38:59;100716.34;;;14.95
58102;BMP280;52034;51.926;6.320;2023-05-10T01:40:19;100713.47;;;14.93
58102;BMP280;52034;51.926;6.320;2023-05-10T01:42:37;100719.13;;;14.93
58102;BMP280;52034;51.926;6.320;2023-05-10T01:43:59;100721.88;;;14.90
58102;BMP280;52034;51.926;6.320;2023-05-10T01:46:16;100721.88;;;14.90
58102;BMP280;52034;51.926;6.320;2023-05-10T01:48:47;100721.22;;;14.92
58102;BMP280;52034;51.926;6.320;2023-05-10T01:49:50;100723.38;;;14.93
58102;BMP280;52034;51.926;6.320;2023-05-10T01:50:52;100725.44;;;14.91
58102;BMP280;52034;51.926;6.320;2023-05-10T01:51:54;100726.88;;;14.92
58102;BMP280;52034;51.926;6.320;2023-05-10T01:53:00;100719.84;;;14.93
58102;BMP280;52034;51.926;6.320;2023-05-10T01:54:03;100716.91;;;14.89
58102;BMP280;52034;51.926;6.320;2023-05-10T01:55:06;100725.50;;;14.95
58102;BMP280;52034;51.926;6.320;2023-05-10T01:56:09;100728.38;;;14.97
58102;BMP280;52034;51.926;6.320;2023-05-10T01:57:13;100729.13;;;14.98
58102;BMP280;52034;51.926;6.320;2023-05-10T01:58:25;100729.03;;;14.93
58102;BMP280;52034;51.926;6.320;2023-05-10T01:59:30;100729.81;;;14.98
58102;BMP280;52034;51.926;6.320;2023-05-10T02:00:32;100724.84;;;14.95
58102;BMP280;52034;51.926;6.320;2023-05-10T02:01:33;100728.34;;;14.95
58102;BMP280;52034;51.926;6.320;2023-05-10T02:02:42;100722.72;;;14.97
58102;BMP280;52034;51.926;6.320;2023-05-10T02:03:46;100721.34;;;14.98
58102;BMP280;52034;51.926;6.320;2023-05-10T02:04:49;100724.88;;;14.98
58102;BMP280;52034;51.926;6.320;2023-05-10T02:05:51;100722.78;;;14.99
58102;BMP280;52034;51.926;6.320;2023-05-10T02:06:56;100722.00;;;14.96
58102;BMP280;52034;51.926;6.320;2023-05-10T02:07:57;100727.66;;;14.95
58102;BMP280;52034;51.926;6.320;2023-05-10T02:09:00;100719.78;;;14.91
58102;BMP280;52034;51.926;6.320;2023-05-10T02:10:06;100730.38;;;14.90
58102;BMP280;52034;51.926;6.320;2023-05-10T02:11:07;100722.56;;;14.89
58102;BMP280;52034;51.926;6.320;2023-05-10T02:12:08;100724.84;;;14.95
58102;BMP280;52034;51.926;6.320;2023-05-10T02:13:10;100719.13;;;14.93
58102;BMP280;52034;51.926;6.320;2023-05-10T02:14:12;100725.50;;;14.93
58102;BMP280;52034;51.926;6.320;2023-05-10T02:15:17;100719.78;;;14.91
58102;BMP280;52034;51.926;6.320;2023-05-10T02:16:21;100729.69;;;14.92
58102;BMP280;52034;51.926;6.320;2023-05-10T02:17:24;100729.03;;;14.93
58102;BMP280;52034;51.926;6.320;2023-05-10T02:18:27;100728.22;;;14.89
58102;BMP280;52034;51.926;6.320;2023-05-10T02:19:28;100732.50;;;14.90
58102;BMP280;52034;51.926;6.320;2023-05-10T02:20:31;100726.81;;;14.88
58102;BMP280;52034;51.926;6.320;2023-05-10T02:21:32;100726.13;;;14.89
58102;BMP280;52034;51.926;6.320;2023-05-10T02:22:35;100728.84;;;14.83
58102;BMP280;52034;51.926;6.320;2023-05-10T02:23:37;100727.47;;;14.85
58102;BMP280;52034;51.926;6.320;2023-05-10T02:24:38;100726.72;;;14.84
58102;BMP280;52034;51.926;6.320;2023-05-10T02:25:40;100725.38;;;14.87
58102;BMP280;52034;51.926;6.320;2023-05-10T02:26:42;100729.63;;;14.86
58102;BMP280;52034;51.926;6.320;2023-05-10T02:27:43;100727.47;;;14.85
58102;BMP280;52034;51.926;6.320;2023-05-10T02:28:45;100733.88;;;14.87
58102;BMP280;52034;51.926;6.320;2023-05-10T02:29:46;100734.53;;;14.86
58102;BMP280;52034;51.926;6.320;2023-05-10T02:30:47;100735.28;;;14.86
58102;BMP280;52034;51.926;6.320;2023-05-10T02:31:48;100735.97;;;14.87
58102;BMP280;52034;51.926;6.320;2023-05-10T02:32:51;100740.25;;;14.89
58102;BMP280;52034;51.926;6.320;2023-05-10T02:33:53;100746.59;;;14.88
58102;BMP280;52034;51.926;6.320;2023-05-10T02:34:54;100740.94;;;14.86
58102;BMP280;52034;51.926;6.320;2023-05-10T02:35:56;100743.75;;;14.86
58102;BMP280;52034;51.926;6.320;2023-05-10T02:36:57;100731.59;;;14.80
58102;BMP280;52034;51.926;6.320;2023-05-10T02:37:59;100733.81;;;14.83
58102;BMP280;52034;51.926;6.320;2023-05-10T02:39:01;100728.16;;;14.85
58102;BMP280;52034;51.926;6.320;2023-05-10T02:40:02;100731.00;;;14.85
58102;BMP280;52034;51.926;6.320;2023-05-10T02:41:08;100732.44;;;14.86
58102;BMP280;52034;51.926;6.320;2023-05-10T02:42:13;100735.94;;;14.85
58102;BMP280;52034;51.926;6.320;2023-05-10T02:43:16;100728.88;;;14.86
58102;BMP280;52034;51.926;6.320;2023-05-10T02:44:19;100735.97;;;14.87
58102;BMP280;52034;51.926;6.320;2023-05-10T02:45:24;100727.50;;;14.87
58102;BMP280;52034;51.926;6.320;2023-05-10T02:46:26;100734.56;;;14.88
58102;BMP280;52034;51.926;6.320;2023-05-10T02:47:28;100740.94;;;14.88
58102;BMP280;52034;51.926;6.320;2023-05-10T02:48:28;100733.16;;;14.87
58102;BMP280;52034;51.926;6.320;2023-05-10T02:49:29;100736.69;;;14.87
58102;BMP280;52034;51.926;6.320;2023-05-10T02:50:30;100733.19;;;14.89
58102;BMP280;52034;51.926;6.320;2023-05-10T02:51:35;100729.63;;;14.86
58102;BMP280;52034;51.926;6.320;2023-05-10T02:52:40;100731.78;;;14.89
58102;BMP280;52034;51.926;6.320;2023-05-10T02:53:44;100735.28;;;14.88
58102;BMP280;52034;51.926;6.320;2023-05-10T02:54:48;100737.41;;;14.88
58102;BMP280;52034;51.926;6.320;2023-05-10T02:55:52;100729.63;;;14.86
58102;BMP280;52034;51.926;6.320;2023-05-10T02:56:58;100735.28;;;14.86
58102;BMP280;52034;51.926;6.320;2023-05-10T02:58:01;100742.34;;;14.89
58102;BMP280;52034;51.926;6.320;2023-05-10T02:59:02;100738.16;;;14.90
58102;BMP280;52034;51.926;6.320;2023-05-10T03:00:02;100733.94;;;14.91
58102;BMP280;52034;51.926;6.320;2023-05-10T03:01:03;100740.31;;;14.92
58102;BMP280;52034;51.926;6.320;2023-05-10T03:02:04;100742.41;;;14.91
58102;BMP280;52034;51.926;6.320;2023-05-10T03:03:05;100735.28;;;14.88
58102;BMP280;52034;51.926;6.320;2023-05-10T03:04:05;100732.47;;;14.88
58102;BMP280;52034;51.926;6.320;2023-05-10T03:05:06;100739.59;;;14.91
58102;BMP280;52034;51.926;6.320;2023-05-10T03:06:06;100735.97;;;14.87
58102;BMP280;52034;51.926;6.320;2023-05-10T03:07:07;100737.38;;;14.86
58102;BMP280;52034;51.926;6.320;2023-05-10T03:08:09;100740.25;;;14.89
58102;BMP280;52034;51.926;6.320;2023-05-10T03:09:10;100742.34;;;14.87
58102;BMP280;52034;51.926;6.320;2023-05-10T03:10:12;100736.63;;;14.83
58102;BMP280;52034;51.926;6.320;2023-05-10T03:12:46;100735.19;;;14.82
58102;BMP280;52034;51.926;6.320;2023-05-10T03:14:08;100737.31;;;14.83
58102;BMP280;52034;51.926;6.320;2023-05-10T03:16:24;100750.66;;;14.79
58102;BMP280;52034;51.926;6.320;2023-05-10T03:17:40;100747.09;;;14.77
58102;BMP280;52034;51.926;6.320;2023-05-10T03:18:58;100741.50;;;14.81
58102;BMP280;52034;51.926;6.320;2023-05-10T03:20:08;100748.63;;;14.82
58102;BMP280;52034;51.926;6.320;2023-05-10T03:21:12;100738.75;;;14.83
58102;BMP280;52034;51.926;6.320;2023-05-10T03:22:23;100743.03;;;14.86
58102;BMP280;52034;51.926;6.320;2023-05-10T03:23:40;100749.31;;;14.82
58102;BMP280;52034;51.926;6.320;2023-05-10T03:24:43;100745.78;;;14.82
58102;BMP280;52034;51.926;6.320;2023-05-10T03:25:44;100748.66;;;14.86
58102;BMP280;52034;51.926;6.320;2023-05-10T03:26:47;100750.06;;;14.85
58102;BMP280;52034;51.926;6.320;2023-05-10T03:27:51;100752.22;;;14.86
58102;BMP280;52034;51.926;6.320;2023-05-10T03:28:52;100755.75;;;14.87
58102;BMP280;52034;51.926;6.320;2023-05-10T03:29:54;100747.94;;;14.85
58102;BMP280;52034;51.926;6.320;2023-05-10T03:30:55;100752.94;;;14.87
58102;BMP280;52034;51.926;6.320;2023-05-10T03:31:59;100750.78;;;14.83
58102;BMP280;52034;51.926;6.320;2023-05-10T03:33:05;100754.31;;;14.86
58102;BMP280;52034;51.926;6.320;2023-05-10T03:34:12;100754.28;;;14.83
58102;BMP280;52034;51.926;6.320;2023-05-10T03:35:13;100756.44;;;14.85
58102;BMP280;52034;51.926;6.320;2023-05-10T03:36:15;100759.97;;;14.86
58102;BMP280;52034;51.926;6.320;2023-05-10T03:37:16;100753.59;;;14.83
58102;BMP280;52034;51.926;6.320;2023-05-10T03:38:16;100759.25;;;14.83
58102;BMP280;52034;51.926;6.320;2023-05-10T03:39:16;100760.66;;;14.84
58102;BMP280;52034;51.926;6.320;2023-05-10T03:40:22;100756.44;;;14.85
58102;BMP280;52034;51.926;6.320;2023-05-10T03:41:23;100751.44;;;14.82
58102;BMP280;52034;51.926;6.320;2023-05-10T03:42:23;100765.56;;;14.82
58102;BMP280;52034;51.926;6.320;2023-05-10T03:43:24;100760.63;;;14.82
58102;BMP280;52034;51.926;6.320;2023-05-10T03:44:24;100764.84;;;14.81
58102;BMP280;52034;51.926;6.320;2023-05-10T03:45:24;100764.78;;;14.79
58102;BMP280;52034;51.926;6.320;2023-05-10T03:46:25;100762.63;;;14.77
58102;BMP280;52034;51.926;6.320;2023-05-10T03:47:25;100766.19;;;14.78
58102;BMP280;52034;51.926;6.320;2023-05-10T03:48:26;100764.78;;;14.77
58102;BMP280;52034;51.926;6.320;2023-05-10T03:49:27;100763.31;;;14.76
58102;BMP280;52034;51.926;6.320;2023-05-10T03:50:27;100774.66;;;14.78
58102;BMP280;52034;51.926;6.320;2023-05-10T03:51:27;100763.31;;;14.76
58102;BMP280;52034;51.926;6.320;2023-05-10T03:52:28;100767.50;;;14.71
58102;BMP280;52034;51.926;6.320;2023-05-10T03:53:29;100767.56;;;14.75
58102;BMP280;52034;51.926;6.320;2023-05-10T03:54:29;100768.94;;;14.74
58102;BMP280;52034;51.926;6.320;2023-05-10T03:55:30;100775.38;;;14.79
58102;BMP280;52034;51.926;6.320;2023-05-10T03:56:34;100771.84;;;14.78
58102;BMP280;52034;51.926;6.320;2023-05-10T03:57:34;100776.09;;;14.79
58102;BMP280;52034;51.926;6.320;2023-05-10T03:58:35;100778.25;;;14.81
58102;BMP280;52034;51.926;6.320;2023-05-10T03:59:35;100776.81;;;14.80
58102;BMP280;52034;51.926;6.320;2023-05-10T04:00:36;100774.63;;;14.76
58102;BMP280;52034;51.926;6.320;2023-05-10T04:01:37;100778.22;;;14.79
58102;BMP280;52034;51.926;6.320;2023-05-10T04:02:37;100773.94;;;14.77
58102;BMP280;52034;51.926;6.320;2023-05-10T04:03:38;100776.03;;;14.75
58102;BMP280;52034;51.926;6.320;2023-05-10T04:04:39;100778.91;;;14.77
58102;BMP280;52034;51.926;6.320;2023-05-10T04:05:39;100776.09;;;14.79
58102;BMP280;52034;51.926;6.320;2023-05-10T04:06:40;100774.63;;;14.76
58102;BMP280;52034;51.926;6.320;2023-05-10T04:07:40;100775.38;;;14.79
58102;BMP280;52034;51.926;6.320;2023-05-10T04:08:40;100776.75;;;14.77
58102;BMP280;52034;51.926;6.320;2023-05-10T04:09:41;100776.03;;;14.75
58102;BMP280;52034;51.926;6.320;2023-05-10T04:10:41;100771.72;;;14.72
58102;BMP280;52034;51.926;6.320;2023-05-10T04:11:41;100777.38;;;14.70
58102;BMP280;52034;51.926;6.320;2023-05-10T04:12:42;100775.91;;;14.69
58102;BMP280;52034;51.926;6.320;2023-05-10T04:13:42;100774.44;;;14.66
58102;BMP280;52034;51.926;6.320;2023-05-10T04:14:43;100772.97;;;14.63
58102;BMP280;52034;51.926;6.320;2023-05-10T04:15:43;100782.81;;;14.60
58102;BMP280;52034;51.926;6.320;2023-05-10T04:16:43;100772.88;;;14.57
58102;BMP280;52034;51.926;6.320;2023-05-10T04:17:44;100774.22;;;14.56
58102;BMP280;52034;51.926;6.320;2023-05-10T04:18:44;100779.88;;;14.54
58102;BMP280;52034;51.926;6.320;2023-05-10T04:19:44;100782.69;;;14.54
58102;BMP280;52034;51.926;6.320;2023-05-10T04:20:45;100776.94;;;14.50
58102;BMP280;52034;51.926;6.320;2023-05-10T04:21:45;100783.31;;;14.51
58102;BMP280;52034;51.926;6.320;2023-05-10T04:22:45;100778.34;;;14.49
58102;BMP280;52034;51.926;6.320;2023-05-10T04:23:46;100777.66;;;14.49
58102;BMP280;52034;51.926;6.320;2023-05-10T04:24:46;100788.94;;;14.49
58102;BMP280;52034;51.926;6.320;2023-05-10T04:25:46;100786.81;;;14.49
58102;BMP280;52034;51.926;6.320;2023-05-10T04:26:47;100774.09;;;14.48
58102;BMP280;52034;51.926;6.320;2023-05-10T04:27:47;100788.94;;;14.49
58102;BMP280;52034;51.926;6.320;2023-05-10T04:28:47;100783.97;;;14.47
58102;BMP280;52034;51.926;6.320;2023-05-10T04:29:48;100791.72;;;14.47
58102;BMP280;52034;51.926;6.320;2023-05-10T04:30:48;100790.28;;;14.46
58102;BMP280;52034;51.926;6.320;2023-05-10T04:31:48;100793.13;;;14.46
58102;BMP280;52034;51.926;6.320;2023-05-10T04:32:49;100792.38;;;14.45
58102;BMP280;52034;51.926;6.320;2023-05-10T04:33:49;100793.06;;;14.44
58102;BMP280;52034;51.926;6.320;2023-05-10T04:34:50;100785.88;;;14.39
58102;BMP280;52034;51.926;6.320;2023-05-10T04:35:53;100788.69;;;14.37
58102;BMP280;52034;51.926;6.320;2023-05-10T04:36:53;100802.13;;;14.38
58102;BMP280;52034;51.926;6.320;2023-05-10T04:37:54;100795.03;;;14.37
58102;BMP280;52034;51.926;6.320;2023-05-10T04:38:54;100793.59;;;14.34
58102;BMP280;52034;51.926;6.320;2023-05-10T04:39:54;100801.38;;;14.36
58102;BMP280;52034;51.926;6.320;2023-05-10T04:41:06;100800.59;;;14.31
58102;BMP280;52034;51.926;6.320;2023-05-10T04:42:07;100792.78;;;14.32
58102;BMP280;52034;51.926;6.320;2023-05-10T04:43:07;100804.81;;;14.32
58102;BMP280;52034;51.926;6.320;2023-05-10T04:44:07;100801.94;;;14.30
58102;BMP280;52034;51.926;6.320;2023-05-10T04:45:08;100805.50;;;14.31
58102;BMP280;52034;51.926;6.320;2023-05-10T04:46:09;100807.59;;;14.30
58102;BMP280;52034;51.926;6.320;2023-05-10T04:47:10;100804.09;;;14.32
58102;BMP280;52034;51.926;6.320;2023-05-10T04:48:11;100801.94;;;14.30
58102;BMP280;52034;51.926;6.320;2023-05-10T04:49:11;100809.72;;;14.32
58102;BMP280;52034;51.926;6.320;2023-05-10T04:50:12;100807.59;;;14.30
58102;BMP280;52034;51.926;6.320;2023-05-10T04:51:12;100816.16;;;14.34
58102;BMP280;52034;51.926;6.320;2023-05-10T04:52:12;100807.69;;;14.34
58102;BMP280;52034;51.926;6.320;2023-05-10T04:53:13;100815.50;;;14.36
58102;BMP280;52034;51.926;6.320;2023-05-10T04:54:14;100813.34;;;14.34
58102;BMP280;52034;51.926;6.320;2023-05-10T04:55:14;100816.22;;;14.36
58102;BMP280;52034;51.926;6.320;2023-05-10T04:56:14;100817.59;;;14.35
58102;BMP280;52034;51.926;6.320;2023-05-10T04:57:16;100814.81;;;14.37
58102;BMP280;52034;51.926;6.320;2023-05-10T04:58:16;100813.41;;;14.38
58102;BMP280;52034;51.926;6.320;2023-05-10T04:59:16;100821.16;;;14.38
58102;BMP280;52034;51.926;6.320;2023-05-10T05:00:17;100816.25;;;14.38
58102;BMP280;52034;51.926;6.320;2023-05-10T05:01:17;100813.47;;;14.40
58102;BMP280;52034;51.926;6.320;2023-05-10T05:02:18;100819.16;;;14.42
58102;BMP280;52034;51.926;6.320;2023-05-10T05:03:18;100816.28;;;14.40
58102;BMP280;52034;51.926;6.320;2023-05-10T05:04:19;100819.91;;;14.45
58102;BMP280;52034;51.926;6.320;2023-05-10T05:05:19;100817.06;;;14.45
58102;BMP280;52034;51.926;6.320;2023-05-10T05:06:19;100817.75;;;14.43
58102;BMP280;52034;51.926;6.320;2023-05-10T05:07:21;100819.22;;;14.46
58102;BMP280;52034;51.926;6.320;2023-05-10T05:08:21;100821.34;;;14.46
58102;BMP280;52034;51.926;6.320;2023-05-10T05:09:21;100818.53;;;14.46
58102;BMP280;52034;51.926;6.320;2023-05-10T05:10:22;100824.88;;;14.46
58102;BMP280;52034;51.926;6.320;2023-05-10T05:11:22;100817.88;;;14.47
58102;BMP280;52034;51.926;6.320;2023-05-10T05:12:22;100818.56;;;14.48
58102;BMP280;52034;51.926;6.320;2023-05-10T05:13:23;100818.53;;;14.46
58102;BMP280;52034;51.926;6.320;2023-05-10T05:14:23;100823.56;;;14.49
58102;BMP280;52034;51.926;6.320;2023-05-10T05:15:25;100825.03;;;14.52
58102;BMP280;52034;51.926;6.320;2023-05-10T05:16:25;100828.56;;;14.53
58102;BMP280;52034;51.926;6.320;2023-05-10T05:17:26;100825.09;;;14.54
58102;BMP280;52034;51.926;6.320;2023-05-10T05:18:26;100819.38;;;14.52
58102;BMP280;52034;51.926;6.320;2023-05-10T05:19:26;100825.09;;;14.54
58102;BMP280;52034;51.926;6.320;2023-05-10T05:20:27;100819.44;;;14.54
58102;BMP280;52034;51.926;6.320;2023-05-10T05:21:27;100822.94;;;14.53
58102;BMP280;52034;51.926;6.320;2023-05-10T05:22:28;100817.34;;;14.57
58102;BMP280;52034;51.926;6.320;2023-05-10T05:23:29;100818.00;;;14.55
58102;BMP280;52034;51.926;6.320;2023-05-10T05:24:35;100828.03;;;14.60
58102;BMP280;52034;51.926;6.320;2023-05-10T05:25:35;100825.94;;;14.63
58102;BMP280;52034;51.926;6.320;2023-05-10T05:26:36;100830.88;;;14.62
58102;BMP280;52034;51.926;6.320;2023-05-10T05:27:37;100821.00;;;14.63
58102;BMP280;52034;51.926;6.320;2023-05-10T05:28:37;100829.53;;;14.65
58102;BMP280;52034;51.926;6.320;2023-05-10T05:29:37;100832.38;;;14.65
58102;BMP280;52034;51.926;6.320;2023-05-10T05:30:38;100827.44;;;14.68
58102;BMP280;52034;51.926;6.320;2023-05-10T05:31:38;100831.00;;;14.68
58102;BMP280;52034;51.926;6.320;2023-05-10T05:32:38;100825.41;;;14.70
58102;BMP280;52034;51.926;6.320;2023-05-10T05:33:39;100827.50;;;14.70
58102;BMP280;52034;51.926;6.320;2023-05-10T05:34:39;100828.94;;;14.71
58102;BMP280;52034;51.926;6.320;2023-05-10T05:35:40;100833.88;;;14.72
58102;BMP280;52034;51.926;6.320;2023-05-10T05:36:40;100828.97;;;14.73
58102;BMP280;52034;51.926;6.320;2023-05-10T05:37:41;100827.56;;;14.74
58102;BMP280;52034;51.926;6.320;2023-05-10T05:38:41;100824.06;;;14.75
58102;BMP280;52034;51.926;6.320;2023-05-10T05:39:43;100819.81;;;14.74
58102;BMP280;52034;51.926;6.320;2023-05-10T05:40:44;100832.75;;;14.83
58102;BMP280;52034;51.926;6.320;2023-05-10T05:41:45;100836.31;;;14.86
58102;BMP280;52034;51.926;6.320;2023-05-10T05:42:46;100831.38;;;14.86
58102;BMP280;52034;51.926;6.320;2023-05-10T05:43:46;100834.22;;;14.88
58102;BMP280;52034;51.926;6.320;2023-05-10T05:44:47;100839.91;;;14.90
58102;BMP280;52034;51.926;6.320;2023-05-10T05:45:47;100839.19;;;14.89
58102;BMP280;52034;51.926;6.320;2023-05-10T05:46:48;100834.97;;;14.89
58102;BMP280;52034;51.926;6.320;2023-05-10T05:47:48;100829.25;;;14.87
58102;BMP280;52034;51.926;6.320;2023-05-10T05:48:48;100832.75;;;14.83
58102;BMP280;52034;51.926;6.320;2023-05-10T05:49:49;100835.50;;;14.81
58102;BMP280;52034;51.926;6.320;2023-05-10T05:50:49;100832.63;;;14.79
58102;BMP280;52034;51.926;6.320;2023-05-10T05:51:50;100840.41;;;14.79
58102;BMP280;52034;51.926;6.320;2023-05-10T05:52:50;100836.84;;;14.78
58102;BMP280;52034;51.926;6.320;2023-05-10T05:53:51;100844.59;;;14.77
58102;BMP280;52034;51.926;6.320;2023-05-10T05:54:51;100840.28;;;14.73
58102;BMP280;52034;51.926;6.320;2023-05-10T05:55:53;100835.34;;;14.73
58102;BMP280;52034;51.926;6.320;2023-05-10T05:56:55;100842.47;;;14.76
58102;BMP280;52034;51.926;6.320;2023-05-10T05:57:55;100833.28;;;14.76
58102;BMP280;52034;51.926;6.320;2023-05-10T05:58:56;100835.44;;;14.77
58102;BMP280;52034;51.926;6.320;2023-05-10T05:59:56;100834.00;;;14.78
58102;BMP280;52034;51.926;6.320;2023-05-10T06:00:56;100836.19;;;14.80
58102;BMP280;52034;51.926;6.320;2023-05-10T06:01:57;100834.06;;;14.80
58102;BMP280;52034;51.926;6.320;2023-05-10T06:02:57;100826.25;;;14.79
58102;BMP280;52034;51.926;6.320;2023-05-10T06:03:58;100829.84;;;14.81
58102;BMP280;52034;51.926;6.320;2023-05-10T06:04:58;100831.31;;;14.84
58102;BMP280;52034;51.926;6.320;2023-05-10T06:05:58;100834.13;;;14.84